Time;durP1;ratioP1;P1;durP2;ratioP2;P2;SDS_P1;SDS_P2;PMS_P1;PMS_P2;Temp;Humidity;BMP_temperature;BMP_pressure;BME280_temperature;BME280_humidity;BME280_pressure;Samples;Min_cycle;Max_cycle;Signal;HPM_P1;HPM_P2
2024/02/23 00:01:19;;;;;;;5.13;0.80;;;5.10;99.90;;;;;;4974379;28;20037;-77
2024/02/23 00:03:45;;;;;;;2.13;0.68;;;5.10;99.90;;;;;;4971948;28;20053;-76
2024/02/23 00:06:12;;;;;;;11.48;0.80;;;5.10;99.90;;;;;;4993679;28;20044;-77
2024/02/23 00:08:38;;;;;;;4.95;1.00;;;5.10;99.90;;;;;;4997675;28;20034;-77
2024/02/23 00:11:05;;;;;;;2.65;0.70;;;5.10;99.90;;;;;;4989293;28;20036;-77
2024/02/23 00:13:32;;;;;;;7.78;0.85;;;5.10;99.90;;;;;;4983213;28;20511;-76
2024/02/23 00:15:59;;;;;;;7.10;0.40;;;5.10;99.90;;;;;;4962652;28;21142;-76
2024/02/23 00:18:25;;;;;;;4.85;0.68;;;5.00;99.90;;;;;;4970562;28;20037;-76
2024/02/23 00:20:52;;;;;;;7.50;0.68;;;5.00;99.90;;;;;;4973012;28;20567;-76
2024/02/23 00:23:19;;;;;;;7.50;0.90;;;5.00;99.90;;;;;;4977602;28;20061;-76
2024/02/23 00:25:45;;;;;;;7.97;0.75;;;5.00;99.90;;;;;;4990578;28;20038;-76
2024/02/23 00:28:11;;;;;;;4.15;0.88;;;5.00;99.90;;;;;;4964401;28;20051;-77
2024/02/23 00:30:38;;;;;;;7.07;0.80;;;5.00;99.90;;;;;;4967784;28;20076;-76
2024/02/23 00:33:05;;;;;;;4.93;1.20;;;5.00;99.90;;;;;;4983215;28;20042;-76
2024/02/23 00:35:32;;;;;;;3.78;1.63;;;5.00;99.90;;;;;;4980869;28;20042;-76
2024/02/23 00:37:58;;;;;;;6.60;1.00;;;5.10;99.90;;;;;;4984277;28;20396;-76
2024/02/23 00:40:25;;;;;;;5.25;1.10;;;5.10;99.90;;;;;;4990759;28;20042;-77
2024/02/23 00:42:51;;;;;;;11.65;2.13;;;5.10;99.90;;;;;;4989069;28;20045;-77
2024/02/23 00:45:18;;;;;;;6.47;1.40;;;5.20;99.90;;;;;;4966101;28;20045;-78
2024/02/23 00:47:46;;;;;;;13.82;2.90;;;5.20;99.90;;;;;;4985361;28;20056;-78
2024/02/23 00:50:13;;;;;;;6.35;3.08;;;5.20;99.90;;;;;;4973473;28;20720;-77
2024/02/23 00:52:41;;;;;;;10.00;2.65;;;5.20;99.90;;;;;;4978441;28;20105;-77
2024/02/23 00:55:08;;;;;;;6.65;2.20;;;5.20;99.90;;;;;;4997372;28;20030;-76
2024/02/23 00:57:35;;;;;;;7.60;1.95;;;5.20;99.90;;;;;;4980774;28;21031;-76
2024/02/23 01:00:05;;;;;;;6.20;1.45;;;5.20;99.90;;;;;;4986582;28;20519;-77
2024/02/23 01:02:32;;;;;;;5.10;1.05;;;5.20;99.90;;;;;;4984435;28;20728;-77
2024/02/23 01:04:59;;;;;;;3.28;0.70;;;5.10;99.90;;;;;;5003070;28;20037;-77
2024/02/23 01:07:26;;;;;;;3.50;1.00;;;5.00;99.90;;;;;;4966872;28;20154;-78
2024/02/23 01:09:52;;;;;;;6.30;0.80;;;4.90;99.90;;;;;;4969503;28;20068;-78
2024/02/23 01:12:18;;;;;;;4.50;0.60;;;4.90;99.90;;;;;;4996697;28;20033;-78
2024/02/23 01:14:45;;;;;;;3.13;0.70;;;4.80;99.90;;;;;;4961337;28;20630;-78
2024/02/23 01:17:11;;;;;;;4.38;0.85;;;4.80;99.90;;;;;;4987576;28;20042;-77
2024/02/23 01:19:37;;;;;;;4.20;0.65;;;4.80;99.90;;;;;;5002716;28;20049;-77
2024/02/23 01:22:04;;;;;;;5.35;1.10;;;4.90;99.90;;;;;;4985585;28;20033;-77
2024/02/23 01:24:31;;;;;;;8.32;3.67;;;4.90;99.90;;;;;;4984575;28;21233;-76
2024/02/23 01:26:58;;;;;;;14.82;7.68;;;4.90;99.90;;;;;;4987943;28;20033;-77
2024/02/23 01:29:26;;;;;;;18.17;9.45;;;5.00;99.90;;;;;;4974096;28;20360;-77
2024/02/23 01:31:54;;;;;;;15.50;8.93;;;5.00;99.90;;;;;;5003762;28;20044;-77
2024/02/23 01:34:21;;;;;;;18.75;10.25;;;5.10;99.90;;;;;;4981850;28;20038;-77
2024/02/23 01:36:47;;;;;;;14.77;10.27;;;5.10;99.90;;;;;;4947358;28;20045;-76
2024/02/23 01:39:14;;;;;;;18.92;10.50;;;5.20;99.90;;;;;;4958126;28;20472;-76
2024/02/23 01:41:42;;;;;;;20.42;10.55;;;5.20;99.90;;;;;;4976973;28;20034;-77
2024/02/23 01:44:08;;;;;;;17.00;9.75;;;5.20;99.90;;;;;;4990710;28;20052;-77
2024/02/23 01:46:35;;;;;;;14.38;9.32;;;5.30;99.90;;;;;;4989140;28;20025;-76
2024/02/23 01:49:03;;;;;;;16.55;7.65;;;5.30;99.90;;;;;;4974363;28;20049;-77
2024/02/23 01:51:31;;;;;;;15.90;8.73;;;5.30;99.90;;;;;;4964786;28;20044;-76
2024/02/23 01:53:57;;;;;;;13.15;6.05;;;5.30;99.90;;;;;;4978262;28;20034;-76
2024/02/23 01:56:24;;;;;;;14.55;6.25;;;5.20;99.90;;;;;;4978729;28;20042;-76
2024/02/23 01:58:51;;;;;;;12.95;5.45;;;5.20;99.90;;;;;;4980833;28;20112;-76
2024/02/23 02:01:17;;;;;;;9.48;5.20;;;5.10;99.90;;;;;;4968581;28;20040;-76
2024/02/23 02:03:43;;;;;;;9.68;5.18;;;5.10;99.90;;;;;;4995140;28;20036;-76
2024/02/23 02:06:11;;;;;;;15.55;5.30;;;5.10;99.90;;;;;;4996279;28;20014;-77
2024/02/23 02:08:38;;;;;;;6.95;3.30;;;5.00;99.90;;;;;;4971968;28;20044;-76
2024/02/23 02:11:04;;;;;;;13.75;3.60;;;5.00;99.90;;;;;;5001573;28;20037;-76
2024/02/23 02:13:31;;;;;;;12.98;3.53;;;5.00;99.90;;;;;;5019944;28;20507;-77
2024/02/23 02:16:00;;;;;;;10.75;2.88;;;5.00;99.90;;;;;;4970739;28;20513;-76
2024/02/23 02:18:27;;;;;;;10.90;2.38;;;5.00;99.90;;;;;;4982486;28;20034;-76
2024/02/23 02:20:56;;;;;;;11.68;2.15;;;4.90;99.90;;;;;;4970659;28;20056;-76
2024/02/23 02:23:23;;;;;;;10.32;1.42;;;4.90;99.90;;;;;;4999869;28;20052;-76
2024/02/23 02:25:57;;;;;;;7.78;1.52;;;4.90;99.90;;;;;;4998348;28;20037;-76
2024/02/23 02:28:25;;;;;;;12.45;1.98;;;4.80;99.90;;;;;;4974457;28;20037;-76
2024/02/23 02:30:52;;;;;;;6.97;1.30;;;4.80;99.90;;;;;;4976513;28;20838;-76
2024/02/23 02:33:19;;;;;;;10.32;1.88;;;4.70;99.90;;;;;;4994084;28;20029;-76
2024/02/23 02:35:45;;;;;;;10.65;1.38;;;4.70;99.90;;;;;;4990900;28;20044;-76
2024/02/23 02:38:11;;;;;;;8.00;1.00;;;4.60;99.90;;;;;;4982104;28;20042;-76
2024/02/23 02:40:38;;;;;;;5.63;1.00;;;4.60;99.90;;;;;;4997281;28;20375;-77
2024/02/23 02:43:05;;;;;;;11.18;1.30;;;4.60;99.90;;;;;;4996017;28;20064;-76
2024/02/23 02:45:32;;;;;;;11.50;1.40;;;4.60;99.90;;;;;;4972012;28;20084;-76
2024/02/23 02:48:01;;;;;;;12.98;1.67;;;4.70;99.90;;;;;;4957133;28;21534;-76
2024/02/23 02:50:28;;;;;;;6.85;1.00;;;4.70;99.90;;;;;;4976454;28;20041;-77
2024/02/23 02:52:54;;;;;;;6.85;1.10;;;4.70;99.90;;;;;;4975429;28;20044;-76
2024/02/23 02:55:20;;;;;;;10.07;1.00;;;4.70;99.90;;;;;;4962829;28;20041;-76
2024/02/23 02:57:47;;;;;;;9.60;1.17;;;4.70;99.90;;;;;;4994410;28;20037;-76
2024/02/23 03:00:13;;;;;;;11.10;1.40;;;4.80;99.90;;;;;;4981247;28;20041;-76
2024/02/23 03:02:40;;;;;;;3.70;0.70;;;4.70;99.90;;;;;;5010591;28;21270;-75
2024/02/23 03:05:06;;;;;;;10.30;1.65;;;4.70;99.90;;;;;;4972181;28;20048;-76
2024/02/23 03:07:33;;;;;;;8.95;1.40;;;4.70;99.90;;;;;;4989073;28;21123;-75
2024/02/23 03:09:59;;;;;;;8.13;1.25;;;4.70;99.90;;;;;;4994084;28;20037;-76
2024/02/23 03:12:26;;;;;;;10.65;1.48;;;4.80;99.90;;;;;;4992040;28;20491;-75
2024/02/23 03:14:52;;;;;;;8.52;1.33;;;4.80;99.90;;;;;;4974960;28;20591;-76
2024/02/23 03:17:18;;;;;;;5.28;1.10;;;4.80;99.90;;;;;;4979879;28;20040;-76
2024/02/23 03:19:44;;;;;;;13.15;1.95;;;4.80;99.90;;;;;;4996718;28;20025;-76
2024/02/23 03:22:11;;;;;;;12.98;1.48;;;4.70;99.90;;;;;;4994378;28;20025;-76
2024/02/23 03:24:38;;;;;;;5.85;1.20;;;4.70;99.90;;;;;;4993405;28;20017;-75
2024/02/23 03:27:04;;;;;;;7.68;0.90;;;4.70;99.90;;;;;;4986257;28;21354;-76
2024/02/23 03:29:30;;;;;;;5.00;1.10;;;4.70;99.90;;;;;;4989872;28;20691;-76
2024/02/23 03:31:57;;;;;;;11.73;1.20;;;4.70;99.90;;;;;;4976811;28;20371;-75
2024/02/23 03:34:23;;;;;;;10.52;1.20;;;4.70;99.90;;;;;;4980215;28;20357;-75
2024/02/23 03:36:50;;;;;;;10.80;1.38;;;4.70;99.90;;;;;;4996214;28;20030;-75
2024/02/23 03:39:16;;;;;;;12.07;1.17;;;4.70;99.90;;;;;;4975467;28;20208;-76
2024/02/23 03:41:42;;;;;;;8.30;1.50;;;4.80;99.90;;;;;;4971852;28;20036;-76
2024/02/23 03:44:09;;;;;;;13.80;2.10;;;4.80;99.90;;;;;;4992276;28;20044;-76
2024/02/23 03:46:35;;;;;;;6.30;1.35;;;4.80;99.90;;;;;;4974041;28;20037;-76
2024/02/23 03:49:02;;;;;;;5.53;1.10;;;4.90;99.90;;;;;;5023505;28;20359;-75
2024/02/23 03:51:28;;;;;;;9.80;1.88;;;4.90;99.90;;;;;;4972274;28;20052;-76
2024/02/23 03:53:54;;;;;;;7.35;1.60;;;4.90;99.90;;;;;;4997535;28;20052;-75
2024/02/23 03:56:21;;;;;;;8.00;1.58;;;4.90;99.90;;;;;;5000066;28;20288;-75
2024/02/23 03:58:47;;;;;;;14.82;1.60;;;4.90;99.90;;;;;;5009368;28;20477;-75
2024/02/23 04:01:13;;;;;;;6.85;1.33;;;4.90;99.90;;;;;;4992352;28;20052;-75
2024/02/23 04:03:40;;;;;;;6.70;1.70;;;4.80;99.90;;;;;;4967106;28;20646;-75
2024/02/23 04:06:07;;;;;;;5.50;1.52;;;4.80;99.90;;;;;;4989276;28;20033;-75
2024/02/23 04:08:34;;;;;;;8.48;1.45;;;4.80;99.90;;;;;;4973338;28;20469;-75
2024/02/23 04:11:00;;;;;;;10.48;1.77;;;4.70;99.90;;;;;;4982159;28;20040;-75
2024/02/23 04:13:27;;;;;;;6.07;1.48;;;4.70;99.90;;;;;;4995529;28;20516;-75
2024/02/23 04:15:53;;;;;;;11.07;1.92;;;4.70;99.90;;;;;;4987685;28;20029;-75
2024/02/23 04:18:19;;;;;;;8.73;1.48;;;4.70;99.90;;;;;;4986943;28;20035;-75
2024/02/23 04:20:46;;;;;;;9.40;1.70;;;4.80;99.90;;;;;;4989273;28;20041;-75
2024/02/23 04:23:12;;;;;;;7.32;1.60;;;4.80;99.90;;;;;;4988067;28;20483;-75
2024/02/23 04:25:38;;;;;;;6.18;1.75;;;4.80;99.90;;;;;;4981184;28;21222;-76
2024/02/23 04:28:05;;;;;;;6.32;1.58;;;4.70;99.90;;;;;;4980622;28;20033;-75
2024/02/23 04:30:31;;;;;;;6.95;1.67;;;4.70;99.90;;;;;;5000139;28;20025;-76
2024/02/23 04:32:58;;;;;;;9.40;1.90;;;4.60;99.90;;;;;;4979287;28;20021;-76
2024/02/23 04:35:24;;;;;;;13.38;2.10;;;4.60;99.90;;;;;;4989447;28;20038;-75
2024/02/23 04:37:51;;;;;;;6.38;1.70;;;4.60;99.90;;;;;;4988237;28;20044;-75
2024/02/23 04:40:17;;;;;;;10.15;1.55;;;4.60;99.90;;;;;;4975995;28;20029;-74
2024/02/23 04:42:45;;;;;;;12.55;2.00;;;4.70;99.90;;;;;;4991869;28;20030;-76
2024/02/23 04:45:11;;;;;;;11.50;2.00;;;4.70;99.90;;;;;;5001991;28;20028;-75
2024/02/23 04:47:40;;;;;;;11.07;1.73;;;4.70;99.90;;;;;;4997984;28;20041;-74
2024/02/23 04:50:07;;;;;;;7.88;2.00;;;4.80;99.90;;;;;;4995222;28;20682;-75
2024/02/23 04:52:33;;;;;;;8.40;1.88;;;4.80;99.90;;;;;;4991084;28;20448;-75
2024/02/23 04:54:59;;;;;;;8.70;1.58;;;4.80;99.90;;;;;;4993055;28;20037;-75
2024/02/23 04:57:26;;;;;;;10.57;2.10;;;4.80;99.90;;;;;;4989247;28;20037;-75
2024/02/23 04:59:52;;;;;;;9.23;2.22;;;4.80;99.90;;;;;;4994693;28;20033;-75
2024/02/23 05:02:18;;;;;;;8.35;1.65;;;4.80;99.90;;;;;;4977827;28;20133;-74
2024/02/23 05:04:45;;;;;;;12.48;2.33;;;4.90;99.90;;;;;;5002631;28;20345;-75
2024/02/23 05:07:11;;;;;;;12.10;1.73;;;4.90;99.90;;;;;;4998508;28;20044;-76
2024/02/23 05:09:40;;;;;;;8.15;2.03;;;4.90;99.90;;;;;;4976811;28;20390;-75
2024/02/23 05:12:09;;;;;;;10.40;1.75;;;5.00;99.90;;;;;;5025413;28;20037;-75
2024/02/23 05:14:36;;;;;;;8.98;1.73;;;5.00;99.90;;;;;;4991347;28;21649;-75
2024/02/23 05:17:03;;;;;;;9.20;1.70;;;5.00;99.90;;;;;;5004908;28;20044;-74
2024/02/23 05:19:30;;;;;;;12.98;3.67;;;5.00;99.90;;;;;;4974477;28;20860;-75
2024/02/23 05:21:56;;;;;;;9.00;1.75;;;5.00;99.90;;;;;;4962707;28;20495;-75
2024/02/23 05:24:22;;;;;;;8.57;2.15;;;5.00;99.90;;;;;;4978213;28;20021;-75
2024/02/23 05:26:48;;;;;;;13.07;2.38;;;5.00;99.90;;;;;;4989312;28;20033;-75
2024/02/23 05:29:17;;;;;;;9.07;1.85;;;5.10;99.90;;;;;;4989138;28;20029;-75
2024/02/23 05:31:49;;;;;;;12.65;2.17;;;5.10;99.90;;;;;;4970627;28;22643;-76
2024/02/23 05:34:15;;;;;;;6.50;1.88;;;5.10;99.90;;;;;;5006389;28;20116;-75
2024/02/23 05:36:43;;;;;;;6.63;2.58;;;5.10;99.90;;;;;;4992357;28;20029;-75
2024/02/23 05:39:09;;;;;;;9.98;1.90;;;5.10;99.90;;;;;;4979179;28;20033;-76
2024/02/23 05:41:36;;;;;;;7.25;1.77;;;5.20;99.90;;;;;;5000162;28;20057;-75
2024/02/23 05:44:05;;;;;;;9.10;1.40;;;5.20;99.90;;;;;;4997102;28;20033;-76
2024/02/23 05:46:35;;;;;;;11.35;3.03;;;5.20;99.90;;;;;;4991138;28;20044;-75
2024/02/23 05:49:04;;;;;;;9.93;2.10;;;5.20;99.90;;;;;;4990535;28;20041;-75
2024/02/23 05:51:31;;;;;;;7.53;1.40;;;5.20;99.90;;;;;;5022169;28;20493;-76
2024/02/23 05:53:58;;;;;;;7.78;1.92;;;5.20;99.90;;;;;;4961153;28;20064;-75
2024/02/23 05:56:24;;;;;;;6.85;1.33;;;5.20;99.90;;;;;;4978918;28;20611;-75
2024/02/23 05:58:51;;;;;;;7.80;1.70;;;5.30;99.90;;;;;;5001526;28;20048;-75
2024/02/23 06:01:18;;;;;;;9.20;1.80;;;5.30;99.90;;;;;;5001989;28;20052;-74
2024/02/23 06:03:46;;;;;;;6.82;1.73;;;5.30;99.90;;;;;;4996157;28;20044;-75
2024/02/23 06:06:12;;;;;;;9.05;2.75;;;5.30;99.90;;;;;;5013895;28;21169;-75
2024/02/23 06:08:39;;;;;;;7.95;1.98;;;5.30;99.90;;;;;;4996890;28;20044;-76
2024/02/23 06:11:05;;;;;;;6.72;1.58;;;5.30;99.90;;;;;;4996346;28;20033;-75
2024/02/23 06:13:32;;;;;;;9.13;2.55;;;5.30;99.90;;;;;;4999544;28;20029;-75
2024/02/23 06:15:59;;;;;;;8.18;2.15;;;5.30;99.90;;;;;;5001803;28;20025;-75
2024/02/23 06:18:26;;;;;;;8.15;2.85;;;5.30;99.90;;;;;;4982287;28;20033;-75
2024/02/23 06:20:52;;;;;;;9.20;2.35;;;5.30;99.90;;;;;;4994688;28;20037;-75
2024/02/23 06:23:19;;;;;;;9.25;2.60;;;5.30;99.90;;;;;;4993891;28;20044;-74
2024/02/23 06:25:45;;;;;;;7.20;1.50;;;5.30;99.90;;;;;;4961752;28;20512;-74
2024/02/23 06:28:11;;;;;;;7.90;1.65;;;5.30;99.90;;;;;;4976446;28;20164;-76
2024/02/23 06:30:38;;;;;;;7.20;1.95;;;5.20;99.90;;;;;;4996110;28;20219;-75
2024/02/23 06:33:05;;;;;;;8.07;1.80;;;5.20;99.90;;;;;;5001728;28;20057;-75
2024/02/23 06:35:32;;;;;;;9.60;2.42;;;5.20;99.90;;;;;;5018590;28;20033;-75
2024/02/23 06:37:58;;;;;;;7.05;2.00;;;5.20;99.90;;;;;;4998827;28;20049;-76
2024/02/23 06:40:25;;;;;;;9.63;2.30;;;5.20;99.90;;;;;;4982377;28;20459;-75
2024/02/23 06:42:51;;;;;;;7.82;1.80;;;5.20;99.90;;;;;;4964684;28;20380;-75
2024/02/23 06:45:19;;;;;;;9.48;2.42;;;5.20;99.90;;;;;;5009627;28;20045;-75
2024/02/23 06:47:45;;;;;;;9.23;1.60;;;5.20;99.90;;;;;;4997639;28;20494;-74
2024/02/23 06:50:11;;;;;;;8.65;1.27;;;5.20;99.90;;;;;;4996995;28;20049;-75
2024/02/23 06:52:38;;;;;;;11.52;1.45;;;5.30;99.90;;;;;;5005079;28;20041;-75
2024/02/23 06:55:04;;;;;;;6.97;1.85;;;5.30;99.90;;;;;;4988511;28;20034;-75
2024/02/23 06:57:31;;;;;;;11.15;1.58;;;5.40;99.90;;;;;;5000392;28;20052;-75
2024/02/23 06:59:58;;;;;;;7.68;1.40;;;5.40;99.90;;;;;;4980875;28;20059;-75
2024/02/23 07:02:24;;;;;;;10.07;1.23;;;5.40;99.90;;;;;;4999668;28;20392;-76
2024/02/23 07:04:51;;;;;;;10.60;2.25;;;5.40;99.90;;;;;;4998450;28;20072;-75
2024/02/23 07:07:17;;;;;;;4.68;1.10;;;5.50;99.90;;;;;;4964092;28;20037;-75
2024/02/23 07:09:43;;;;;;;8.45;1.00;;;5.50;99.90;;;;;;4998590;28;20049;-76
2024/02/23 07:12:13;;;;;;;13.48;1.23;;;5.50;99.90;;;;;;5003194;28;20033;-76
2024/02/23 07:14:39;;;;;;;9.35;1.30;;;5.50;99.90;;;;;;4995956;28;20045;-76
2024/02/23 07:17:06;;;;;;;8.65;0.85;;;5.50;99.90;;;;;;4974222;28;20048;-75
2024/02/23 07:19:33;;;;;;;6.72;1.27;;;5.60;99.90;;;;;;4993152;28;20037;-76
2024/02/23 07:21:59;;;;;;;8.10;1.05;;;5.50;99.90;;;;;;4973580;28;20086;-76
2024/02/23 07:24:25;;;;;;;7.88;1.33;;;5.60;99.90;;;;;;4993671;28;20057;-76
2024/02/23 07:26:52;;;;;;;6.60;1.05;;;5.60;99.90;;;;;;5008426;28;20025;-76
2024/02/23 07:29:19;;;;;;;6.35;1.02;;;5.70;99.90;;;;;;4999037;28;20469;-76
2024/02/23 07:31:45;;;;;;;7.28;1.10;;;5.70;99.90;;;;;;4996021;28;20028;-74
2024/02/23 07:34:11;;;;;;;5.43;0.70;;;5.70;99.90;;;;;;4994184;28;20479;-76
2024/02/23 07:36:39;;;;;;;6.13;1.35;;;5.70;99.90;;;;;;4993851;28;20041;-75
2024/02/23 07:39:06;;;;;;;8.80;1.20;;;5.80;99.90;;;;;;4992749;28;20037;-75
2024/02/23 07:41:32;;;;;;;9.38;1.30;;;5.80;99.90;;;;;;4958547;28;20084;-76
2024/02/23 07:43:58;;;;;;;8.25;0.95;;;5.80;99.90;;;;;;4995577;28;20056;-77
2024/02/23 07:46:25;;;;;;;9.02;1.10;;;5.80;99.90;;;;;;4981183;28;20045;-76
2024/02/23 07:48:51;;;;;;;8.13;1.00;;;5.90;99.90;;;;;;4980829;28;20044;-75
2024/02/23 07:51:19;;;;;;;8.07;0.70;;;5.80;99.90;;;;;;4959331;28;20064;-75
2024/02/23 07:53:45;;;;;;;9.43;1.10;;;5.90;99.90;;;;;;5007037;28;20484;-74
2024/02/23 07:56:12;;;;;;;5.95;1.00;;;5.90;99.90;;;;;;4974023;28;20025;-75
2024/02/23 07:58:39;;;;;;;8.25;0.70;;;5.90;99.90;;;;;;4974254;28;22141;-74
2024/02/23 08:01:05;;;;;;;9.45;1.20;;;6.00;99.90;;;;;;5007642;28;20029;-75
2024/02/23 08:03:31;;;;;;;4.35;0.80;;;6.00;99.90;;;;;;4998630;28;20041;-75
2024/02/23 08:05:57;;;;;;;6.35;1.17;;;6.00;99.90;;;;;;4997598;28;20021;-76
2024/02/23 08:08:25;;;;;;;5.93;0.93;;;6.00;99.90;;;;;;4962182;28;20037;-75
2024/02/23 08:10:51;;;;;;;9.43;1.30;;;6.10;99.90;;;;;;4991468;28;20029;-76
2024/02/23 08:13:18;;;;;;;5.07;0.80;;;6.20;99.90;;;;;;4957636;28;20037;-76
2024/02/23 08:15:45;;;;;;;6.53;0.73;;;6.20;99.90;;;;;;4974478;28;20045;-75
2024/02/23 08:18:11;;;;;;;6.80;1.15;;;6.30;99.90;;;;;;4974041;28;20033;-76
2024/02/23 08:20:37;;;;;;;9.15;1.30;;;6.40;99.90;;;;;;4977614;28;20049;-74
2024/02/23 08:23:04;;;;;;;9.32;0.90;;;6.40;99.90;;;;;;4984667;28;20041;-76
2024/02/23 08:25:30;;;;;;;7.75;0.93;;;6.40;99.90;;;;;;4988712;28;20041;-75
2024/02/23 08:27:57;;;;;;;7.55;0.80;;;6.50;99.90;;;;;;4988150;28;20033;-76
2024/02/23 08:30:23;;;;;;;8.10;0.70;;;6.50;99.90;;;;;;4971583;28;20041;-75
2024/02/23 08:32:49;;;;;;;7.15;0.80;;;6.50;99.90;;;;;;4987798;28;20054;-74
2024/02/23 08:35:16;;;;;;;7.05;0.90;;;6.40;99.90;;;;;;4987920;28;20724;-75
2024/02/23 08:37:42;;;;;;;5.18;1.20;;;6.40;99.90;;;;;;4976385;28;20045;-75
2024/02/23 08:40:09;;;;;;;6.05;0.93;;;6.50;99.90;;;;;;5010999;28;20041;-76
2024/02/23 08:42:36;;;;;;;8.90;1.17;;;6.50;99.90;;;;;;4975334;28;20874;-75
2024/02/23 08:45:02;;;;;;;6.82;0.90;;;6.50;99.90;;;;;;4970274;28;20033;-75
2024/02/23 08:47:32;;;;;;;5.95;0.90;;;6.50;99.90;;;;;;4987720;28;20064;-75
2024/02/23 08:49:58;;;;;;;4.70;0.60;;;6.60;99.90;;;;;;4975239;28;20404;-75
2024/02/23 08:52:25;;;;;;;5.28;1.08;;;6.70;99.90;;;;;;4972839;28;20047;-75
2024/02/23 08:54:52;;;;;;;8.50;0.98;;;6.80;99.90;;;;;;4995016;28;20038;-76
2024/02/23 08:57:19;;;;;;;10.18;0.77;;;7.00;99.90;;;;;;4993005;28;20033;-77
2024/02/23 08:59:47;;;;;;;8.10;0.80;;;7.10;99.90;;;;;;4991863;28;20385;-75
2024/02/23 09:02:13;;;;;;;7.95;0.82;;;7.30;99.90;;;;;;4987151;28;20477;-75
2024/02/23 09:04:39;;;;;;;7.07;1.30;;;7.30;99.90;;;;;;4973306;28;20738;-75
2024/02/23 09:07:06;;;;;;;11.38;1.58;;;7.30;99.90;;;;;;4972135;28;20056;-75
2024/02/23 09:09:32;;;;;;;6.68;0.85;;;7.30;99.90;;;;;;4972719;28;20527;-75
2024/02/23 09:11:59;;;;;;;8.13;0.93;;;7.20;99.90;;;;;;4976352;28;20045;-75
2024/02/23 09:14:26;;;;;;;8.23;0.80;;;7.20;99.90;;;;;;5000349;28;20037;-77
2024/02/23 09:16:52;;;;;;;6.10;0.82;;;7.20;99.90;;;;;;4979167;28;20504;-75
2024/02/23 09:19:20;;;;;;;3.45;0.60;;;7.10;99.90;;;;;;4974124;28;20037;-76
2024/02/23 09:21:47;;;;;;;11.35;1.08;;;7.10;99.90;;;;;;4974339;28;20042;-75
2024/02/23 09:24:14;;;;;;;3.70;0.73;;;7.20;99.90;;;;;;4972319;28;20037;-75
2024/02/23 09:26:41;;;;;;;10.55;1.00;;;7.20;99.90;;;;;;4990224;28;20034;-80
2024/02/23 09:29:07;;;;;;;8.88;1.20;;;7.20;99.90;;;;;;4973376;28;20029;-76
2024/02/23 09:31:34;;;;;;;6.45;1.05;;;7.20;99.90;;;;;;5009473;28;20041;-76
2024/02/23 09:34:00;;;;;;;8.98;1.77;;;7.20;99.90;;;;;;4970248;28;20044;-78
2024/02/23 09:36:28;;;;;;;7.93;2.03;;;7.20;99.90;;;;;;4969613;28;20048;-77
2024/02/23 09:38:54;;;;;;;8.30;0.82;;;7.20;99.90;;;;;;4984157;28;20052;-77
2024/02/23 09:41:22;;;;;;;8.85;1.65;;;7.20;99.90;;;;;;5001255;28;20025;-76
2024/02/23 09:43:50;;;;;;;7.43;1.42;;;7.10;99.90;;;;;;4976533;28;20049;-80
2024/02/23 09:46:17;;;;;;;8.45;1.45;;;7.10;99.90;;;;;;4978867;28;20828;-74
2024/02/23 09:48:44;;;;;;;9.38;0.93;;;7.20;99.90;;;;;;5008393;28;20029;-73
2024/02/23 09:51:12;;;;;;;19.55;8.55;;;7.20;99.90;;;;;;4970047;28;20053;-73
2024/02/23 09:53:39;;;;;;;7.10;2.63;;;7.20;99.90;;;;;;4969268;28;20512;-76
2024/02/23 09:56:06;;;;;;;8.75;2.60;;;7.20;99.90;;;;;;4991240;28;20037;-75
2024/02/23 09:58:34;;;;;;;10.85;4.28;;;7.30;99.90;;;;;;4970940;28;20029;-74
2024/02/23 10:01:02;;;;;;;8.48;1.92;;;7.30;99.90;;;;;;4993028;28;20041;-76
2024/02/23 10:03:32;;;;;;;7.38;1.35;;;7.30;99.90;;;;;;4980068;28;20041;-75
2024/02/23 10:06:02;;;;;;;4.68;0.98;;;7.40;99.90;;;;;;4972963;28;20034;-74
2024/02/23 10:08:28;;;;;;;6.75;0.90;;;7.40;99.90;;;;;;4950794;28;20044;-74
2024/02/23 10:10:56;;;;;;;7.18;0.63;;;7.50;99.90;;;;;;5011682;28;20707;-77
2024/02/23 10:13:26;;;;;;;5.80;0.70;;;7.60;99.90;;;;;;4971086;28;20029;-75
2024/02/23 10:15:53;;;;;;;7.63;1.27;;;7.60;99.90;;;;;;4959848;28;20520;-74
2024/02/23 10:18:19;;;;;;;5.60;0.73;;;7.60;99.90;;;;;;4992945;28;20322;-77
2024/02/23 10:20:47;;;;;;;7.85;0.77;;;7.60;99.90;;;;;;4963673;28;20033;-76
2024/02/23 10:23:14;;;;;;;7.85;0.70;;;7.60;99.90;;;;;;4970363;28;20970;-74
2024/02/23 10:25:40;;;;;;;6.28;0.75;;;7.60;99.90;;;;;;4987604;28;20163;-77
2024/02/23 10:28:07;;;;;;;6.40;0.65;;;7.50;99.90;;;;;;4970430;28;20030;-77
2024/02/23 10:30:33;;;;;;;7.28;0.60;;;7.50;99.90;;;;;;4986682;28;20147;-74
2024/02/23 10:33:00;;;;;;;6.60;0.85;;;7.40;99.90;;;;;;4989761;28;20041;-76
2024/02/23 10:35:30;;;;;;;6.20;0.90;;;7.40;99.90;;;;;;5023468;28;20383;-77
2024/02/23 10:37:57;;;;;;;7.20;0.60;;;7.40;99.90;;;;;;4972916;28;20401;-74
2024/02/23 10:40:26;;;;;;;4.25;0.77;;;7.30;99.90;;;;;;4966346;28;20902;-76
2024/02/23 10:42:56;;;;;;;9.55;0.70;;;7.30;99.90;;;;;;5020634;28;20653;-75
2024/02/23 10:45:22;;;;;;;5.45;0.90;;;7.30;99.90;;;;;;4994367;28;20037;-74
2024/02/23 10:47:50;;;;;;;5.03;0.50;;;7.30;99.90;;;;;;4992393;28;22560;-75
2024/02/23 10:50:19;;;;;;;2.55;0.50;;;7.30;99.90;;;;;;4999475;28;20061;-76
2024/02/23 10:52:49;;;;;;;6.25;0.60;;;7.30;99.90;;;;;;4998128;28;20053;-75
2024/02/23 10:55:16;;;;;;;8.55;2.20;;;7.40;99.90;;;;;;4972669;28;20037;-74
2024/02/23 10:57:44;;;;;;;3.90;0.50;;;7.50;99.90;;;;;;5018594;28;20049;-73
2024/02/23 11:00:11;;;;;;;3.15;0.75;;;7.60;99.90;;;;;;4971378;28;22043;-77
2024/02/23 11:02:45;;;;;;;8.07;0.80;;;7.60;99.90;;;;;;4991154;28;20038;-76
2024/02/23 11:05:13;;;;;;;2.95;0.50;;;7.70;99.90;;;;;;4990610;28;20036;-76
2024/02/23 11:07:41;;;;;;;3.05;0.40;;;7.70;99.90;;;;;;4973769;28;20045;-75
2024/02/23 11:10:11;;;;;;;2.45;0.50;;;7.70;99.90;;;;;;4994860;28;20049;-75
2024/02/23 11:12:37;;;;;;;3.25;0.50;;;7.70;99.90;;;;;;5004604;28;21111;-74
2024/02/23 11:15:04;;;;;;;2.88;0.57;;;7.70;99.90;;;;;;4955837;28;20044;-74
2024/02/23 11:17:32;;;;;;;3.03;0.60;;;7.70;99.90;;;;;;4984203;28;20040;-75
2024/02/23 11:20:02;;;;;;;2.83;0.50;;;7.70;99.90;;;;;;4966796;28;20045;-77
2024/02/23 11:22:34;;;;;;;6.05;1.55;;;7.60;99.90;;;;;;4969698;28;21720;-74
2024/02/23 11:25:11;;;;;;;2.90;0.70;;;7.60;99.90;;;;;;4995406;28;20072;-74
2024/02/23 11:27:40;;;;;;;5.10;0.50;;;7.70;99.90;;;;;;4990933;28;20041;-74
2024/02/23 11:30:10;;;;;;;3.63;0.50;;;7.70;99.90;;;;;;4989347;28;20034;-76
2024/02/23 11:32:59;;;;;;;4.75;0.60;;;7.70;99.90;;;;;;4990379;28;20381;-76
2024/02/23 11:35:27;;;;;;;3.38;0.50;;;7.70;99.90;;;;;;4987137;28;20390;-75
2024/02/23 11:37:59;;;;;;;2.22;0.57;;;7.70;99.90;;;;;;4987719;28;20033;-76
2024/02/23 11:40:27;;;;;;;4.35;0.80;;;7.70;99.90;;;;;;4987255;28;20033;-76
2024/02/23 11:42:57;;;;;;;3.00;0.70;;;7.80;99.90;;;;;;5006306;28;20037;-75
2024/02/23 11:45:25;;;;;;;7.20;1.23;;;7.90;99.90;;;;;;4990678;28;20719;-73
2024/02/23 11:47:51;;;;;;;4.88;1.30;;;7.90;99.90;;;;;;4974599;28;20500;-75
2024/02/23 11:50:20;;;;;;;2.70;0.85;;;7.90;99.90;;;;;;4990345;28;20851;-76
2024/02/23 11:52:47;;;;;;;4.45;0.60;;;7.90;99.90;;;;;;4992721;28;20064;-73
2024/02/23 11:55:22;;;;;;;4.25;0.60;;;7.90;99.90;;;;;;4958186;28;20029;-72
2024/02/23 11:57:49;;;;;;;2.97;0.57;;;8.00;99.90;;;;;;4965340;28;20381;-78
2024/02/23 12:00:15;;;;;;;3.50;0.50;;;8.10;99.90;;;;;;5013782;28;20009;-74
2024/02/23 12:02:48;;;;;;;2.35;0.43;;;8.20;99.90;;;;;;4977498;28;20854;-74
2024/02/23 12:05:15;;;;;;;4.47;0.85;;;8.20;99.90;;;;;;4968228;28;20472;-74
2024/02/23 12:07:42;;;;;;;5.20;0.60;;;8.30;99.90;;;;;;4985545;28;20723;-74
2024/02/23 12:10:11;;;;;;;4.43;0.50;;;8.30;99.90;;;;;;4984332;28;20041;-73
2024/02/23 12:12:37;;;;;;;6.05;1.40;;;8.20;99.90;;;;;;4985721;28;20091;-75
2024/02/23 12:15:04;;;;;;;8.45;1.65;;;8.20;99.90;;;;;;4974340;28;21364;-74
2024/02/23 12:17:30;;;;;;;3.97;0.63;;;8.20;99.90;;;;;;4971545;28;20041;-73
2024/02/23 12:20:01;;;;;;;10.98;1.25;;;8.10;99.90;;;;;;4979867;28;20045;-73
2024/02/23 12:22:28;;;;;;;4.93;0.93;;;8.10;99.90;;;;;;4963965;28;20045;-73
2024/02/23 12:24:59;;;;;;;4.03;0.68;;;8.10;99.90;;;;;;5001068;28;20029;-74
2024/02/23 12:27:26;;;;;;;2.85;0.50;;;8.00;99.90;;;;;;4972826;28;20369;-75
2024/02/23 12:29:54;;;;;;;5.68;0.98;;;7.90;99.90;;;;;;4987518;28;20044;-74
2024/02/23 12:32:21;;;;;;;4.18;0.95;;;7.90;99.90;;;;;;4992995;28;20922;-75
2024/02/23 12:34:48;;;;;;;4.80;0.60;;;7.90;99.90;;;;;;4994028;28;20048;-75
2024/02/23 12:37:16;;;;;;;4.13;0.50;;;8.00;99.90;;;;;;4958021;28;20443;-75
2024/02/23 12:39:43;;;;;;;3.30;0.60;;;8.00;99.90;;;;;;4984062;28;21191;-73
2024/02/23 12:42:10;;;;;;;3.75;0.98;;;8.10;99.90;;;;;;4985473;28;20029;-75
2024/02/23 12:44:36;;;;;;;5.35;0.88;;;8.10;99.90;;;;;;4985689;28;20029;-73
2024/02/23 12:47:03;;;;;;;6.00;1.67;;;8.20;99.90;;;;;;5018067;28;20512;-76
2024/02/23 12:49:29;;;;;;;5.07;0.70;;;8.30;99.90;;;;;;4992883;28;20049;-76
2024/02/23 12:51:56;;;;;;;4.88;0.60;;;8.40;99.90;;;;;;4974280;28;20037;-74
2024/02/23 12:54:23;;;;;;;4.28;1.00;;;8.40;99.90;;;;;;4952684;28;21605;-73